Time;durP1;ratioP1;P1;durP2;ratioP2;P2;SDS_P1;SDS_P2;PMS_P1;PMS_P2;Temp;Humidity;BMP_temperature;BMP_pressure;BME280_temperature;BME280_humidity;BME280_pressure;Samples;Min_cycle;Max_cycle;Signal;HPM_P1;HPM_P2
2024/03/25 00:00:55;;;;;;;4.27;2.37;;;;;;;7.94;89.21;97379.09;4049823;29;20270;-84
2024/03/25 00:03:15;;;;;;;4.32;2.90;;;;;;;7.96;89.16;97380.63;4049497;29;21388;-84
2024/03/25 00:05:38;;;;;;;6.63;2.40;;;;;;;7.96;88.67;97373.81;4048767;29;20241;-83
2024/03/25 00:07:58;;;;;;;8.30;3.05;;;;;;;7.94;89.51;97376.50;4050497;29;20219;-83
2024/03/25 00:10:20;;;;;;;3.58;2.45;;;;;;;7.88;88.34;97376.94;4047018;29;20214;-84
2024/03/25 00:12:43;;;;;;;4.22;2.70;;;;;;;7.86;89.62;97377.97;4050131;29;20262;-84
2024/03/25 00:15:04;;;;;;;4.20;2.30;;;;;;;7.88;89.81;97383.88;4062066;29;20847;-84
2024/03/25 00:17:25;;;;;;;4.60;2.70;;;;;;;7.93;89.68;97384.41;4059899;29;20214;-84
2024/03/25 00:19:50;;;;;;;2.67;2.13;;;;;;;7.92;89.33;97377.53;4044737;29;20673;-84
2024/03/25 00:22:12;;;;;;;3.43;2.23;;;;;;;7.90;89.82;97384.63;4063664;29;20254;-84
2024/03/25 00:24:33;;;;;;;3.35;2.45;;;;;;;7.87;88.96;97383.06;4049002;29;20592;-84
2024/03/25 00:26:54;;;;;;;4.88;2.45;;;;;;;7.82;89.29;97372.16;4062730;29;20245;-84
2024/03/25 00:29:15;;;;;;;4.25;2.80;;;;;;;7.75;89.59;97380.47;4048664;29;20242;-84
2024/03/25 00:31:35;;;;;;;3.45;2.30;;;;;;;7.63;89.64;97366.56;4074792;29;20232;-83
2024/03/25 00:33:56;;;;;;;3.97;1.90;;;;;;;7.62;89.62;97371.84;4048125;29;20242;-84
2024/03/25 00:36:16;;;;;;;3.25;2.65;;;;;;;7.62;88.96;97374.44;4061717;29;20777;-84
2024/03/25 00:38:38;;;;;;;2.83;2.10;;;;;;;7.64;90.59;97372.59;4046931;29;20802;-84
2024/03/25 00:40:58;;;;;;;4.70;2.00;;;;;;;7.62;90.08;97369.25;4063972;29;20245;-83
2024/03/25 00:43:19;;;;;;;3.47;2.40;;;;;;;7.60;88.73;97369.38;4071850;29;20233;-84
2024/03/25 00:45:41;;;;;;;5.18;2.55;;;;;;;7.59;90.45;97361.69;4051686;29;20301;-83
2024/03/25 00:48:02;;;;;;;3.58;2.30;;;;;;;7.57;89.83;97366.16;4062150;29;20302;-85
2024/03/25 00:50:22;;;;;;;4.25;2.63;;;;;;;7.56;90.06;97372.28;4051887;29;20215;-84
2024/03/25 00:52:43;;;;;;;7.20;2.80;;;;;;;7.55;89.53;97362.84;4051536;29;20262;-83
2024/03/25 00:55:05;;;;;;;5.57;2.45;;;;;;;7.54;89.85;97366.38;4064269;29;20709;-83
2024/03/25 00:57:25;;;;;;;4.13;2.05;;;;;;;7.58;89.11;97367.84;4076143;29;20511;-83
2024/03/25 00:59:46;;;;;;;3.10;2.00;;;;;;;7.61;89.92;97372.81;4066951;29;20456;-84
2024/03/25 01:02:08;;;;;;;3.53;2.20;;;;;;;7.65;89.83;97369.06;4060089;29;20217;-84
2024/03/25 01:04:28;;;;;;;4.53;2.28;;;;;;;7.63;89.33;97373.53;4048927;29;20213;-84
2024/03/25 01:06:50;;;;;;;5.10;3.20;;;;;;;7.59;89.55;97365.13;4043345;29;20288;-83
2024/03/25 01:09:10;;;;;;;3.30;2.30;;;;;;;7.62;89.89;97364.94;4051340;29;20222;-84
2024/03/25 01:11:32;;;;;;;3.88;2.53;;;;;;;7.64;89.11;97367.41;4060921;29;20240;-84
2024/03/25 01:13:51;;;;;;;5.18;2.33;;;;;;;7.64;90.17;97362.22;4059542;29;20214;-83
2024/03/25 01:16:12;;;;;;;4.30;2.35;;;;;;;7.68;89.36;97361.06;4059108;29;20248;-84
2024/03/25 01:18:32;;;;;;;3.53;2.13;;;;;;;7.70;90.81;97357.44;4061294;29;20711;-84
2024/03/25 01:20:54;;;;;;;4.80;2.63;;;;;;;7.76;89.89;97367.41;4047696;29;20748;-84
2024/03/25 01:23:14;;;;;;;3.92;2.60;;;;;;;7.76;88.21;97361.38;4046211;29;20291;-84
2024/03/25 01:25:36;;;;;;;3.08;2.00;;;;;;;7.77;89.35;97360.44;4046109;29;20210;-84
2024/03/25 01:27:57;;;;;;;3.55;2.60;;;;;;;7.82;89.49;97366.97;4059814;29;20260;-84
2024/03/25 01:30:18;;;;;;;3.08;2.40;;;;;;;7.87;89.63;97374.44;4047101;29;20299;-84
2024/03/25 01:32:38;;;;;;;4.47;2.80;;;;;;;7.89;88.87;97368.19;4047392;29;20206;-84
2024/03/25 01:34:59;;;;;;;6.05;2.92;;;;;;;7.88;88.77;97366.56;4046903;29;20762;-84
2024/03/25 01:37:19;;;;;;;3.83;2.42;;;;;;;7.91;88.34;97355.97;4060780;29;20703;-84
2024/03/25 01:39:40;;;;;;;5.32;2.50;;;;;;;7.92;87.93;97361.97;4058901;29;20706;-84
2024/03/25 01:42:00;;;;;;;4.22;3.05;;;;;;;7.92;88.98;97365.38;4045580;29;20210;-84
2024/03/25 01:44:22;;;;;;;4.30;2.50;;;;;;;7.99;88.26;97359.66;4033572;29;20287;-84
2024/03/25 01:46:42;;;;;;;7.78;2.90;;;;;;;8.05;88.04;97369.63;4046468;29;20453;-84
2024/03/25 01:49:03;;;;;;;6.55;2.97;;;;;;;8.10;87.81;97362.34;4062830;29;20241;-84
2024/03/25 01:51:23;;;;;;;7.78;2.78;;;;;;;8.14;87.84;97368.19;4061369;29;20290;-84
2024/03/25 01:53:46;;;;;;;10.00;4.53;;;;;;;8.17;88.55;97366.19;4045329;29;20218;-84
2024/03/25 01:56:07;;;;;;;10.70;3.97;;;;;;;8.21;87.48;97367.66;4063311;29;20688;-84
2024/03/25 01:58:29;;;;;;;4.57;2.92;;;;;;;8.24;88.44;97363.97;4060347;29;20730;-84
2024/03/25 02:00:50;;;;;;;5.82;2.53;;;;;;;8.25;87.48;97369.06;4047472;29;20274;-84
2024/03/25 02:03:12;;;;;;;5.40;2.80;;;;;;;8.27;87.92;97372.41;4062362;29;20305;-83
2024/03/25 02:05:34;;;;;;;4.60;2.75;;;;;;;8.30;87.56;97369.59;4060599;29;21029;-84
2024/03/25 02:07:55;;;;;;;4.13;2.55;;;;;;;8.30;87.12;97364.41;4053599;29;20803;-84
2024/03/25 02:10:15;;;;;;;6.07;2.80;;;;;;;8.34;88.27;97367.59;4046725;29;20211;-84
2024/03/25 02:12:36;;;;;;;4.57;2.55;;;;;;;8.35;87.95;97362.31;4058922;29;20210;-84
2024/03/25 02:14:57;;;;;;;5.05;2.50;;;;;;;8.36;88.14;97361.38;4053695;29;20653;-84
2024/03/25 02:17:19;;;;;;;6.40;3.20;;;;;;;8.33;86.46;97364.19;4057574;29;20270;-84
2024/03/25 02:19:39;;;;;;;4.50;2.60;;;;;;;8.33;86.42;97369.38;4057202;29;20681;-84
2024/03/25 02:22:00;;;;;;;5.13;2.88;;;;;;;8.33;86.77;97360.75;4058263;29;20229;-84
2024/03/25 02:24:21;;;;;;;4.97;2.83;;;;;;;8.36;86.85;97363.13;4061878;29;20213;-84
2024/03/25 02:26:43;;;;;;;5.63;2.85;;;;;;;8.36;86.60;97357.94;4046173;29;20298;-84
2024/03/25 02:29:04;;;;;;;4.93;2.88;;;;;;;8.36;87.90;97360.53;4046032;29;20254;-84
2024/03/25 02:31:25;;;;;;;5.38;2.60;;;;;;;8.35;87.36;97364.91;4049398;29;20323;-85
2024/03/25 02:33:45;;;;;;;3.67;2.40;;;;;;;8.35;86.46;97357.09;4045811;29;20615;-84
2024/03/25 02:36:07;;;;;;;5.00;2.95;;;;;;;8.35;86.58;97357.09;4048152;29;20263;-84
2024/03/25 02:38:27;;;;;;;6.43;2.77;;;;;;;8.36;86.00;97358.78;4047732;29;20306;-84
2024/03/25 02:40:49;;;;;;;5.93;2.70;;;;;;;8.38;86.88;97356.06;4033946;29;20737;-84
2024/03/25 02:43:11;;;;;;;5.90;2.90;;;;;;;8.39;87.27;97358.56;4060511;29;20638;-84
2024/03/25 02:45:32;;;;;;;6.03;2.70;;;;;;;8.41;85.82;97354.06;4042589;29;20600;-84
2024/03/25 02:47:51;;;;;;;6.15;2.80;;;;;;;8.42;85.68;97366.13;4046355;29;20686;-85
2024/03/25 02:50:12;;;;;;;5.55;2.65;;;;;;;8.40;87.11;97362.78;4043985;29;20806;-84
2024/03/25 02:52:32;;;;;;;3.70;2.67;;;;;;;8.42;86.17;97368.72;4058520;29;20677;-84
2024/03/25 02:54:54;;;;;;;4.95;2.55;;;;;;;8.43;85.87;97365.19;4044653;29;20609;-84
2024/03/25 02:57:13;;;;;;;5.85;2.90;;;;;;;8.43;85.64;97364.34;4059255;29;20709;-85
2024/03/25 02:59:35;;;;;;;5.80;2.92;;;;;;;8.41;85.30;97363.66;4045130;29;20635;-84
2024/03/25 03:01:55;;;;;;;6.85;2.58;;;;;;;8.41;86.75;97368.84;4054623;29;20221;-84
2024/03/25 03:04:16;;;;;;;5.60;2.85;;;;;;;8.40;85.60;97355.00;4060426;29;20285;-84
2024/03/25 03:06:36;;;;;;;6.70;3.35;;;;;;;8.41;86.85;97361.88;4047490;29;20383;-84
2024/03/25 03:08:59;;;;;;;5.10;3.00;;;;;;;8.39;85.85;97363.75;4044643;29;20269;-85
2024/03/25 03:11:18;;;;;;;4.53;2.80;;;;;;;8.39;86.87;97366.34;4046119;29;20666;-84
2024/03/25 03:13:39;;;;;;;7.20;3.17;;;;;;;8.36;86.65;97369.16;4050196;29;20221;-84
2024/03/25 03:16:00;;;;;;;5.90;2.97;;;;;;;8.37;86.85;97364.78;4047403;29;20306;-85
2024/03/25 03:18:21;;;;;;;7.47;2.95;;;;;;;8.34;86.43;97365.00;4050150;29;20696;-84
2024/03/25 03:20:41;;;;;;;5.38;2.90;;;;;;;8.34;85.53;97360.63;4049437;29;20214;-85
2024/03/25 03:23:02;;;;;;;5.15;3.00;;;;;;;8.35;85.59;97361.47;4048457;29;20784;-84
2024/03/25 03:25:22;;;;;;;4.57;3.00;;;;;;;8.34;86.67;97359.81;4050638;29;20519;-83
2024/03/25 03:27:43;;;;;;;4.68;3.15;;;;;;;8.33;86.74;97359.00;4049923;29;20699;-83
2024/03/25 03:30:05;;;;;;;6.22;2.90;;;;;;;8.33;86.86;97353.78;4046718;29;20221;-83
2024/03/25 03:32:27;;;;;;;5.70;2.90;;;;;;;8.35;86.81;97357.09;4073343;29;20432;-83
2024/03/25 03:34:47;;;;;;;7.20;2.95;;;;;;;8.36;86.79;97348.38;4046248;29;20347;-83
2024/03/25 03:37:08;;;;;;;8.27;3.35;;;;;;;8.36;86.06;97357.94;4049196;29;20748;-84
2024/03/25 03:39:28;;;;;;;7.10;3.17;;;;;;;8.31;87.34;97345.25;4052042;29;20214;-84
2024/03/25 03:41:49;;;;;;;6.38;3.25;;;;;;;8.29;86.39;97336.75;4062883;29;20778;-84
2024/03/25 03:44:09;;;;;;;5.40;3.40;;;;;;;8.24;86.42;97344.06;4064556;29;20241;-84
2024/03/25 03:46:30;;;;;;;6.75;3.15;;;;;;;8.20;87.06;97337.41;4050854;29;20688;-83
2024/03/25 03:48:51;;;;;;;6.45;3.38;;;;;;;8.16;86.22;97337.75;4063201;29;20254;-84
2024/03/25 03:51:12;;;;;;;5.37;3.37;;;;;;;8.14;88.05;97334.44;4061506;29;20627;-83
2024/03/25 03:53:32;;;;;;;4.55;3.10;;;;;;;8.11;87.28;97340.66;4051178;29;20714;-83
2024/03/25 03:55:56;;;;;;;6.95;3.75;;;;;;;8.07;86.45;97339.19;4052323;29;20908;-84
2024/03/25 03:58:16;;;;;;;4.43;2.70;;;;;;;8.09;87.51;97345.09;4071706;29;20302;-83
2024/03/25 04:00:36;;;;;;;5.35;2.90;;;;;;;8.08;86.52;97346.03;4059677;29;20241;-84
2024/03/25 04:02:58;;;;;;;4.63;3.08;;;;;;;8.07;87.97;97347.00;4054680;29;20616;-84
2024/03/25 04:05:20;;;;;;;3.58;2.80;;;;;;;8.05;88.36;97343.66;4062158;29;20274;-84
2024/03/25 04:07:41;;;;;;;4.15;2.95;;;;;;;8.04;87.43;97346.34;4048344;29;20675;-84
2024/03/25 04:10:03;;;;;;;6.30;3.08;;;;;;;8.01;88.11;97352.63;4071206;29;20647;-84
2024/03/25 04:12:23;;;;;;;3.40;2.50;;;;;;;7.96;87.59;97348.66;4063160;29;20261;-84
2024/03/25 04:14:45;;;;;;;4.70;2.90;;;;;;;7.92;87.18;97357.59;4062355;29;20257;-84
2024/03/25 04:17:05;;;;;;;6.05;3.15;;;;;;;7.90;87.08;97356.06;4069889;29;20204;-84
2024/03/25 04:19:27;;;;;;;7.43;3.35;;;;;;;7.87;87.48;97356.28;4041310;29;20663;-84
2024/03/25 04:21:49;;;;;;;5.28;3.20;;;;;;;7.85;87.01;97364.16;4045292;29;20222;-84
2024/03/25 04:24:09;;;;;;;5.70;3.80;;;;;;;7.87;87.16;97359.69;4060750;29;20231;-84
2024/03/25 04:26:29;;;;;;;4.47;3.10;;;;;;;7.88;88.51;97358.75;4063283;29;20344;-84
2024/03/25 04:28:50;;;;;;;7.65;3.70;;;;;;;7.92;88.31;97361.97;4050355;29;20242;-83
2024/03/25 04:31:11;;;;;;;4.90;2.75;;;;;;;7.95;89.01;97359.16;4059037;29;20792;-83
2024/03/25 04:33:32;;;;;;;4.55;3.35;;;;;;;7.98;87.69;97355.44;4060732;29;20628;-84
2024/03/25 04:35:51;;;;;;;5.80;2.88;;;;;;;8.02;87.62;97358.63;4046721;29;20234;-84
